Time;durP1;ratioP1;P1;durP2;ratioP2;P2;SDS_P1;SDS_P2;PMS_P1;PMS_P2;Temp;Humidity;BMP_temperature;BMP_pressure;BME280_temperature;BME280_humidity;BME280_pressure;Samples;Min_cycle;Max_cycle;Signal;HPM_P1;HPM_P2
2022/10/31 00:01:12;;;;;;;13.05;2.58;;;;;;;;;;1701282;83;20991;-87
2022/10/31 00:03:37;;;;;;;8.90;2.52;;;;;;;;;;1699246;84;21116;-87
2022/10/31 00:06:03;;;;;;;10.68;2.60;;;;;;;;;;1701146;84;20994;-87
2022/10/31 00:08:29;;;;;;;10.98;2.22;;;;;;;;;;1701012;83;21255;-88
2022/10/31 00:10:55;;;;;;;10.60;2.75;;;;;;;;;;1701179;84;20948;-87
2022/10/31 00:13:20;;;;;;;7.67;2.62;;;;;;;;;;1701057;84;21642;-88
2022/10/31 00:15:46;;;;;;;9.10;3.35;;;;;;;;;;1701201;84;21071;-90
2022/10/31 00:18:12;;;;;;;15.68;3.17;;;;;;;;;;1700772;84;20908;-88
2022/10/31 00:20:38;;;;;;;7.15;2.45;;;;;;;;;;1681344;84;21100;-85
2022/10/31 00:23:05;;;;;;;13.45;3.45;;;;;;;;;;1701060;84;21063;-90
2022/10/31 00:25:34;;;;;;;7.55;3.22;;;;;;;;;;1701092;84;21051;-86
2022/10/31 00:27:59;;;;;;;13.78;3.42;;;;;;;;;;1700686;83;21947;-87
2022/10/31 00:30:25;;;;;;;12.55;2.90;;;;;;;;;;1681048;84;20845;-87
2022/10/31 00:32:51;;;;;;;10.23;3.42;;;;;;;;;;1700998;84;21330;-88
2022/10/31 00:35:16;;;;;;;10.72;3.25;;;;;;;;;;1700921;84;20833;-91
2022/10/31 00:37:42;;;;;;;11.73;3.70;;;;;;;;;;1700708;83;21029;-87
2022/10/31 00:40:09;;;;;;;13.72;3.77;;;;;;;;;;1700770;84;21075;-84
2022/10/31 00:42:34;;;;;;;18.00;3.65;;;;;;;;;;1700738;83;20944;-89
2022/10/31 00:45:00;;;;;;;12.98;3.92;;;;;;;;;;1700768;83;20932;-88
2022/10/31 00:47:26;;;;;;;10.40;3.00;;;;;;;;;;1700813;84;20927;-88
2022/10/31 00:49:51;;;;;;;14.55;3.05;;;;;;;;;;1700762;83;21476;-89
2022/10/31 00:52:17;;;;;;;11.97;2.60;;;;;;;;;;1700636;84;21692;-89
2022/10/31 00:54:42;;;;;;;16.15;3.20;;;;;;;;;;1700730;84;21444;-88
2022/10/31 00:57:08;;;;;;;11.93;3.30;;;;;;;;;;1700987;84;20947;-83
2022/10/31 00:59:33;;;;;;;5.28;2.47;;;;;;;;;;1701095;84;21212;-89
2022/10/31 01:01:59;;;;;;;10.18;3.15;;;;;;;;;;1700937;83;20912;-84
2022/10/31 01:04:25;;;;;;;9.13;2.52;;;;;;;;;;1700939;84;21138;-85
2022/10/31 01:06:50;;;;;;;8.68;2.72;;;;;;;;;;1700762;84;20872;-90
2022/10/31 01:09:16;;;;;;;8.18;2.60;;;;;;;;;;1700988;84;20825;-87
2022/10/31 01:11:42;;;;;;;9.88;2.95;;;;;;;;;;1700946;83;20845;-87
2022/10/31 01:14:09;;;;;;;10.90;3.15;;;;;;;;;;1700939;83;21002;-86
2022/10/31 01:16:34;;;;;;;13.15;3.05;;;;;;;;;;1700969;84;21744;-87
2022/10/31 01:19:00;;;;;;;13.25;3.45;;;;;;;;;;1701059;83;20880;-87
2022/10/31 01:21:28;;;;;;;9.23;2.77;;;;;;;;;;1700904;84;20849;-86
2022/10/31 01:23:54;;;;;;;21.17;3.55;;;;;;;;;;1701003;83;20988;-86
2022/10/31 01:26:25;;;;;;;12.90;2.60;;;;;;;;;;1700908;83;21082;-86
2022/10/31 01:28:59;;;;;;;11.70;2.95;;;;;;;;;;1700943;84;21142;-87
2022/10/31 01:31:31;;;;;;;11.83;2.75;;;;;;;;;;1648022;86;21012;-87
2022/10/31 01:33:58;;;;;;;14.43;3.17;;;;;;;;;;1647861;87;21086;-87
2022/10/31 01:36:27;;;;;;;13.38;3.42;;;;;;;;;;1647798;85;21074;-86
2022/10/31 01:38:58;;;;;;;7.22;2.75;;;;;;;;;;1647631;86;21141;-86
2022/10/31 01:41:27;;;;;;;10.05;2.77;;;;;;;;;;1647921;87;22062;-88
2022/10/31 01:43:56;;;;;;;13.30;3.08;;;;;;;;;;1625651;87;21341;-86
2022/10/31 01:46:31;;;;;;;9.93;3.20;;;;;;;;;;1647746;87;21091;-86
2022/10/31 01:48:58;;;;;;;13.22;3.40;;;;;;;;;;1647851;87;21658;-87
2022/10/31 01:51:27;;;;;;;13.60;3.10;;;;;;;;;;1647872;87;21183;-87
2022/10/31 01:53:55;;;;;;;12.47;3.10;;;;;;;;;;1647899;87;21130;-88
2022/10/31 01:56:21;;;;;;;10.05;2.90;;;;;;;;;;1647848;85;21083;-87
2022/10/31 01:58:47;;;;;;;13.45;3.35;;;;;;;;;;1647806;87;20943;-87
2022/10/31 02:01:14;;;;;;;13.72;3.00;;;;;;;;;;1648161;85;21034;-86
2022/10/31 02:03:40;;;;;;;15.28;2.45;;;;;;;;;;1647814;87;21511;-87
2022/10/31 02:06:08;;;;;;;8.85;2.65;;;;;;;;;;1647954;87;21157;-86
2022/10/31 02:08:35;;;;;;;9.83;3.00;;;;;;;;;;1647807;87;21141;-88
2022/10/31 02:11:01;;;;;;;9.58;2.83;;;;;;;;;;1647813;87;21622;-85
2022/10/31 02:13:29;;;;;;;10.40;3.02;;;;;;;;;;1647820;87;21047;-89
2022/10/31 02:15:57;;;;;;;14.23;3.42;;;;;;;;;;1647841;87;21161;-87
2022/10/31 02:18:25;;;;;;;9.28;2.77;;;;;;;;;;1647803;87;21120;-87
2022/10/31 02:21:03;;;;;;;8.75;3.00;;;;;;;;;;1647921;87;21062;-86
2022/10/31 02:23:32;;;;;;;8.30;2.40;;;;;;;;;;1580460;89;21004;-87
2022/10/31 02:26:20;;;;;;;12.15;2.85;;;;;;;;;;1580364;89;21649;-91
2022/10/31 02:28:52;;;;;;;12.40;2.98;;;;;;;;;;1616947;86;21085;-89
2022/10/31 02:31:36;;;;;;;12.70;2.60;;;;;;;;;;1632822;86;21105;-87
2022/10/31 02:34:17;;;;;;;11.05;2.83;;;;;;;;;;1633047;86;21218;-88
2022/10/31 02:37:02;;;;;;;12.78;2.70;;;;;;;;;;1633111;86;21114;-88
2022/10/31 02:39:34;;;;;;;8.45;3.05;;;;;;;;;;1587474;89;21157;-88
2022/10/31 02:42:17;;;;;;;10.43;2.65;;;;;;;;;;1587213;88;21605;-86
2022/10/31 02:45:02;;;;;;;17.15;3.02;;;;;;;;;;1587277;89;21097;-87
2022/10/31 02:47:29;;;;;;;6.55;2.67;;;;;;;;;;1586997;89;21108;-87
2022/10/31 02:50:14;;;;;;;8.63;2.40;;;;;;;;;;1587107;89;21145;-88
2022/10/31 02:52:40;;;;;;;12.35;2.92;;;;;;;;;;1587024;89;21046;-88
2022/10/31 02:55:12;;;;;;;12.55;2.80;;;;;;;;;;1586802;89;21672;-86
2022/10/31 02:57:40;;;;;;;12.87;2.97;;;;;;;;;;1582959;90;22129;-87
2022/10/31 03:00:07;;;;;;;10.40;3.00;;;;;;;;;;1582771;90;21531;-86
2022/10/31 03:02:55;;;;;;;12.40;3.05;;;;;;;;;;1582902;90;21086;-89
2022/10/31 03:05:24;;;;;;;10.03;2.75;;;;;;;;;;1582443;90;21083;-88
2022/10/31 03:08:09;;;;;;;11.85;2.87;;;;;;;;;;1582821;90;21393;-84
2022/10/31 03:10:45;;;;;;;8.93;2.80;;;;;;;;;;1582986;89;21755;-87
2022/10/31 03:13:19;;;;;;;11.60;2.52;;;;;;;;;;1582065;89;21551;-88
2022/10/31 03:15:49;;;;;;;11.15;3.02;;;;;;;;;;1580708;90;21114;-86
2022/10/31 03:18:33;;;;;;;9.95;3.00;;;;;;;;;;1526666;93;21939;-89
2022/10/31 03:21:14;;;;;;;12.43;3.25;;;;;;;;;;1517594;94;21169;-87
2022/10/31 03:23:41;;;;;;;9.25;2.90;;;;;;;;;;1518766;94;21144;-88
2022/10/31 03:26:08;;;;;;;9.55;3.15;;;;;;;;;;1518700;94;21119;-93
2022/10/31 03:28:43;;;;;;;8.38;3.00;;;;;;;;;;1518816;94;21102;-88
2022/10/31 03:31:10;;;;;;;13.08;3.40;;;;;;;;;;1476228;94;21053;-87
2022/10/31 03:33:38;;;;;;;12.53;3.15;;;;;;;;;;1505316;95;21084;-86
2022/10/31 03:36:06;;;;;;;14.87;2.77;;;;;;;;;;1505359;95;21137;-90
2022/10/31 03:38:42;;;;;;;;;;;;;;;;;;;;;
2022/10/31 03:41:01;;;;;;;12.18;2.72;;;;;;;;;;1518032;94;21107;-87
2022/10/31 03:43:30;;;;;;;9.70;2.85;;;;;;;;;;1518471;94;21102;-91
2022/10/31 03:45:56;;;;;;;10.70;2.77;;;;;;;;;;1518492;94;22527;-88
2022/10/31 03:48:24;;;;;;;9.58;3.08;;;;;;;;;;1518577;93;21130;-88
2022/10/31 03:51:11;;;;;;;14.43;3.33;;;;;;;;;;1522825;94;20995;-87
2022/10/31 03:54:07;;;;;;;16.50;2.95;;;;;;;;;;1530446;91;21084;-87
2022/10/31 03:56:46;;;;;;;16.45;3.12;;;;;;;;;;1563239;91;21557;-87
2022/10/31 03:59:31;;;;;;;17.77;3.58;;;;;;;;;;1563342;90;21048;-87
2022/10/31 04:02:00;;;;;;;9.20;3.00;;;;;;;;;;1566310;91;21223;-87
2022/10/31 04:04:27;;;;;;;13.83;2.92;;;;;;;;;;1566488;91;21099;-87
2022/10/31 04:06:54;;;;;;;12.50;3.33;;;;;;;;;;1546484;91;21124;-89
2022/10/31 04:09:20;;;;;;;15.60;2.90;;;;;;;;;;1546289;91;21109;-87
2022/10/31 04:11:49;;;;;;;9.50;3.08;;;;;;;;;;1559494;91;21822;-86
2022/10/31 04:14:15;;;;;;;10.00;2.35;;;;;;;;;;1536326;91;21473;-86
2022/10/31 04:16:43;;;;;;;12.47;2.85;;;;;;;;;;1568254;90;20971;-87
2022/10/31 04:19:08;;;;;;;10.23;2.90;;;;;;;;;;1574534;88;21159;-87
2022/10/31 04:21:34;;;;;;;9.08;2.87;;;;;;;;;;1635579;87;20900;-87
2022/10/31 04:23:59;;;;;;;14.38;3.10;;;;;;;;;;1644606;87;20982;-88
2022/10/31 04:26:25;;;;;;;16.10;3.42;;;;;;;;;;1644699;87;21838;-87
2022/10/31 04:28:51;;;;;;;10.23;2.90;;;;;;;;;;1649244;85;21034;-88
2022/10/31 04:31:17;;;;;;;10.45;3.02;;;;;;;;;;1655216;85;20896;-87
2022/10/31 04:33:43;;;;;;;11.33;3.17;;;;;;;;;;1656301;85;20999;-88
2022/10/31 04:36:09;;;;;;;16.75;3.15;;;;;;;;;;1653224;85;20866;-87
2022/10/31 04:38:34;;;;;;;14.87;3.33;;;;;;;;;;1639677;85;21579;-88
2022/10/31 04:41:00;;;;;;;22.67;3.70;;;;;;;;;;1670577;85;21393;-88
2022/10/31 04:43:25;;;;;;;16.10;3.42;;;;;;;;;;1670464;85;20991;-88
2022/10/31 04:45:51;;;;;;;8.43;2.90;;;;;;;;;;1670948;85;20825;-86
2022/10/31 04:48:17;;;;;;;11.20;3.87;;;;;;;;;;1708804;83;20954;-87
2022/10/31 04:50:42;;;;;;;13.93;3.52;;;;;;;;;;1723860;83;21165;-89
2022/10/31 04:53:08;;;;;;;12.45;3.30;;;;;;;;;;1723491;83;21656;-87
2022/10/31 04:55:35;;;;;;;16.27;3.27;;;;;;;;;;1723843;83;20820;-87
2022/10/31 04:58:01;;;;;;;10.35;2.72;;;;;;;;;;1723426;82;21593;-87
2022/10/31 05:00:27;;;;;;;13.38;3.08;;;;;;;;;;1723796;83;20919;-88
2022/10/31 05:02:55;;;;;;;9.93;2.70;;;;;;;;;;1723783;82;21076;-87
2022/10/31 05:05:23;;;;;;;11.50;2.87;;;;;;;;;;1723770;83;20983;-87
2022/10/31 05:07:50;;;;;;;17.07;3.35;;;;;;;;;;1723847;83;20986;-88
2022/10/31 05:10:18;;;;;;;9.53;2.80;;;;;;;;;;1723713;82;20999;-87
2022/10/31 05:12:48;;;;;;;10.68;2.98;;;;;;;;;;1723575;83;21108;-88
2022/10/31 05:15:15;;;;;;;13.15;3.02;;;;;;;;;;1723793;83;21889;-86
2022/10/31 05:17:40;;;;;;;11.15;2.65;;;;;;;;;;1723592;82;21014;-87
2022/10/31 05:20:06;;;;;;;9.80;2.55;;;;;;;;;;1723761;82;20890;-87
2022/10/31 05:22:34;;;;;;;13.08;2.70;;;;;;;;;;1723637;83;21058;-86
2022/10/31 05:24:59;;;;;;;11.68;2.70;;;;;;;;;;1702927;84;21027;-88
2022/10/31 05:27:25;;;;;;;13.75;2.90;;;;;;;;;;1703212;83;22258;-89
2022/10/31 05:29:51;;;;;;;8.58;2.35;;;;;;;;;;1703117;84;20880;-89
2022/10/31 05:32:16;;;;;;;14.95;2.95;;;;;;;;;;1703419;84;20963;-89
2022/10/31 05:34:42;;;;;;;14.58;3.17;;;;;;;;;;1703436;83;20794;-88
2022/10/31 05:37:08;;;;;;;12.28;2.75;;;;;;;;;;1703233;83;21078;-91
2022/10/31 05:39:34;;;;;;;7.15;2.55;;;;;;;;;;1702861;83;21944;-89
2022/10/31 05:41:59;;;;;;;10.10;2.55;;;;;;;;;;1703722;83;21006;-87
2022/10/31 05:44:25;;;;;;;6.85;2.15;;;;;;;;;;1703556;84;21373;-88
2022/10/31 05:46:50;;;;;;;6.35;2.22;;;;;;;;;;1703060;83;20865;-88
2022/10/31 05:49:17;;;;;;;5.62;1.90;;;;;;;;;;1702847;84;20917;-90
2022/10/31 05:51:43;;;;;;;12.03;3.47;;;;;;;;;;1703114;83;21105;-89
2022/10/31 05:54:08;;;;;;;9.80;2.35;;;;;;;;;;1702986;84;20901;-88
2022/10/31 05:56:34;;;;;;;12.60;2.65;;;;;;;;;;1703319;84;22642;-87
2022/10/31 05:58:59;;;;;;;11.80;2.50;;;;;;;;;;1703493;84;21348;-87
2022/10/31 06:01:25;;;;;;;10.88;2.35;;;;;;;;;;1703356;83;20937;-87
2022/10/31 06:03:51;;;;;;;5.92;2.27;;;;;;;;;;1703597;84;21353;-87
2022/10/31 06:06:17;;;;;;;6.87;2.17;;;;;;;;;;1703900;83;20810;-87
2022/10/31 06:08:43;;;;;;;6.78;2.20;;;;;;;;;;1703727;83;20961;-87
2022/10/31 06:11:09;;;;;;;9.75;2.37;;;;;;;;;;1703819;83;21075;-89
2022/10/31 06:13:34;;;;;;;8.18;2.05;;;;;;;;;;1703513;83;20924;-87
2022/10/31 06:16:00;;;;;;;13.35;2.27;;;;;;;;;;1718449;83;21013;-87
2022/10/31 06:18:25;;;;;;;7.22;1.90;;;;;;;;;;1723648;83;21028;-86
2022/10/31 06:20:51;;;;;;;11.85;2.33;;;;;;;;;;1723786;83;20867;-86
2022/10/31 06:23:16;;;;;;;11.08;2.02;;;;;;;;;;1723662;82;20918;-86
2022/10/31 06:25:42;;;;;;;12.93;2.10;;;;;;;;;;1724487;82;21396;-85
2022/10/31 06:28:08;;;;;;;7.72;1.98;;;;;;;;;;1720404;83;21714;-86
2022/10/31 06:30:33;;;;;;;6.95;1.82;;;;;;;;;;1723771;82;22140;-86
2022/10/31 06:33:03;;;;;;;6.10;1.60;;;;;;;;;;1723912;83;20879;-85
2022/10/31 06:35:29;;;;;;;5.37;2.15;;;;;;;;;;1723805;83;21022;-84
2022/10/31 06:37:55;;;;;;;10.95;1.52;;;;;;;;;;1723289;81;20867;-86
2022/10/31 06:40:21;;;;;;;9.15;1.87;;;;;;;;;;1709575;83;21158;-84
2022/10/31 06:42:46;;;;;;;11.73;1.82;;;;;;;;;;1709486;83;21672;-83
2022/10/31 06:45:12;;;;;;;6.95;1.85;;;;;;;;;;1709542;83;20898;-84
2022/10/31 06:47:38;;;;;;;5.22;1.72;;;;;;;;;;1709545;83;21537;-84
2022/10/31 06:50:04;;;;;;;7.15;1.72;;;;;;;;;;1709567;83;20843;-84
2022/10/31 06:52:30;;;;;;;6.80;1.70;;;;;;;;;;1709353;82;21093;-85
2022/10/31 06:54:56;;;;;;;7.95;1.80;;;;;;;;;;1709110;84;20910;-86
2022/10/31 06:57:22;;;;;;;5.70;1.95;;;;;;;;;;1709610;82;20906;-84
2022/10/31 06:59:47;;;;;;;8.38;1.90;;;;;;;;;;1709507;82;20890;-84
2022/10/31 07:02:13;;;;;;;10.35;2.55;;;;;;;;;;1726107;82;21409;-86
2022/10/31 07:04:39;;;;;;;6.22;1.70;;;;;;;;;;1728954;82;21765;-86
2022/10/31 07:07:04;;;;;;;6.72;1.75;;;;;;;;;;1730166;81;20943;-85
2022/10/31 07:09:30;;;;;;;5.65;1.85;;;;;;;;;;1730242;82;20888;-86
2022/10/31 07:11:56;;;;;;;8.88;2.17;;;;;;;;;;1729788;82;20995;-87
2022/10/31 07:14:21;;;;;;;5.53;1.95;;;;;;;;;;1730165;82;20956;-87
2022/10/31 07:16:50;;;;;;;8.18;2.25;;;;;;;;;;1729981;82;21779;-87
2022/10/31 07:19:16;;;;;;;6.30;1.45;;;;;;;;;;1729228;82;21046;-85
2022/10/31 07:21:42;;;;;;;3.80;1.35;;;;;;;;;;1727266;81;21039;-87
2022/10/31 07:24:08;;;;;;;5.28;1.10;;;;;;;;;;1728550;82;21007;-90
2022/10/31 07:29:01;;;;;;;2.42;1.10;;;;;;;;;;1626322;86;21487;-89
2022/10/31 07:31:27;;;;;;;3.58;0.93;;;;;;;;;;1639669;85;20999;-90
2022/10/31 07:33:55;;;;;;;2.95;0.98;;;;;;;;;;1658262;85;20966;-90
2022/10/31 07:36:21;;;;;;;1.50;0.90;;;;;;;;;;1657894;85;21137;-85
2022/10/31 07:38:46;;;;;;;1.10;0.70;;;;;;;;;;1656798;85;20923;-84
2022/10/31 07:41:12;;;;;;;0.62;0.50;;;;;;;;;;1656866;85;21384;-87
2022/10/31 07:43:38;;;;;;;1.52;0.62;;;;;;;;;;1651023;85;20856;-86
2022/10/31 07:46:08;;;;;;;1.20;0.80;;;;;;;;;;1653477;85;21636;-84
2022/10/31 07:48:34;;;;;;;1.37;0.70;;;;;;;;;;1656291;85;22157;-86
2022/10/31 07:50:59;;;;;;;3.55;0.70;;;;;;;;;;1657363;85;20908;-89
2022/10/31 07:53:25;;;;;;;3.45;0.80;;;;;;;;;;1663132;85;21129;-82
2022/10/31 07:55:51;;;;;;;0.75;0.70;;;;;;;;;;1658725;85;21006;-83
2022/10/31 07:58:17;;;;;;;0.95;0.90;;;;;;;;;;1653540;85;21006;-88
2022/10/31 08:00:45;;;;;;;1.90;0.70;;;;;;;;;;1646015;85;21034;-87
2022/10/31 08:03:13;;;;;;;2.17;0.90;;;;;;;;;;1658380;85;21059;-88
2022/10/31 08:05:40;;;;;;;1.75;0.57;;;;;;;;;;1646485;85;21173;-86
2022/10/31 08:08:07;;;;;;;1.37;0.50;;;;;;;;;;1653404;85;21622;-86
2022/10/31 08:10:33;;;;;;;0.82;0.40;;;;;;;;;;1660065;84;21063;-86
2022/10/31 08:13:01;;;;;;;0.70;0.55;;;;;;;;;;1660514;83;21515;-87
2022/10/31 08:15:27;;;;;;;2.42;0.53;;;;;;;;;;1641457;85;21917;-89
2022/10/31 08:17:52;;;;;;;0.95;0.50;;;;;;;;;;1634034;86;21110;-86
2022/10/31 08:20:18;;;;;;;1.00;0.40;;;;;;;;;;1638472;86;22127;-86
2022/10/31 08:22:54;;;;;;;0.85;0.30;;;;;;;;;;1641787;86;20995;-87
2022/10/31 08:25:19;;;;;;;1.07;0.30;;;;;;;;;;1595524;85;21584;-92
2022/10/31 08:27:51;;;;;;;4.35;0.53;;;;;;;;;;1645146;87;20878;-85
2022/10/31 08:30:17;;;;;;;0.55;0.30;;;;;;;;;;1643314;85;21126;-83
2022/10/31 08:32:42;;;;;;;1.72;0.45;;;;;;;;;;1656999;85;21043;-85
2022/10/31 08:35:08;;;;;;;1.35;0.37;;;;;;;;;;1651625;85;21670;-88
2022/10/31 08:37:36;;;;;;;0.30;0.20;;;;;;;;;;1663412;85;20965;-88
2022/10/31 08:40:02;;;;;;;0.45;0.20;;;;;;;;;;1649963;84;21132;-86
2022/10/31 08:42:28;;;;;;;1.42;0.50;;;;;;;;;;1653208;84;21649;-87
2022/10/31 08:44:54;;;;;;;0.75;0.40;;;;;;;;;;1654781;85;21085;-83
2022/10/31 08:47:19;;;;;;;1.77;0.30;;;;;;;;;;1661654;85;20922;-87
2022/10/31 08:49:45;;;;;;;1.45;0.40;;;;;;;;;;1665493;85;20926;-87
2022/10/31 08:52:11;;;;;;;1.95;0.50;;;;;;;;;;1657751;85;20910;-88
2022/10/31 08:54:37;;;;;;;1.67;0.40;;;;;;;;;;1655403;85;21085;-87
2022/10/31 08:57:03;;;;;;;0.30;0.20;;;;;;;;;;1654831;85;21213;-85
2022/10/31 08:59:29;;;;;;;1.75;0.40;;;;;;;;;;1657964;85;20926;-88
2022/10/31 09:01:55;;;;;;;1.27;0.35;;;;;;;;;;1659287;85;21078;-89
2022/10/31 09:04:20;;;;;;;2.08;0.30;;;;;;;;;;1660228;85;20892;-89
2022/10/31 09:06:46;;;;;;;1.45;0.40;;;;;;;;;;1663579;85;21627;-90
2022/10/31 09:09:12;;;;;;;3.65;0.20;;;;;;;;;;1660422;84;20964;-91
2022/10/31 09:11:38;;;;;;;1.27;0.30;;;;;;;;;;1665271;85;20967;-89
2022/10/31 09:14:04;;;;;;;1.77;0.30;;;;;;;;;;1660184;85;21513;-88
2022/10/31 09:16:30;;;;;;;0.62;0.23;;;;;;;;;;1661601;85;20903;-88
2022/10/31 09:18:56;;;;;;;1.15;0.17;;;;;;;;;;1660297;85;21839;-88
2022/10/31 09:21:21;;;;;;;0.23;0.10;;;;;;;;;;1687472;81;20950;-89
2022/10/31 09:23:47;;;;;;;0.28;0.20;;;;;;;;;;1733724;81;20975;-89
2022/10/31 09:26:13;;;;;;;2.25;0.30;;;;;;;;;;1734039;81;20998;-90
2022/10/31 09:28:39;;;;;;;1.07;0.20;;;;;;;;;;1733934;82;21015;-88
2022/10/31 09:31:04;;;;;;;4.22;0.40;;;;;;;;;;1734285;82;21072;-89
2022/10/31 09:33:30;;;;;;;1.85;0.28;;;;;;;;;;1733905;82;20893;-89
2022/10/31 09:35:58;;;;;;;1.52;0.28;;;;;;;;;;1733425;82;20884;-88
2022/10/31 09:38:24;;;;;;;0.50;0.30;;;;;;;;;;1729589;82;21047;-91
2022/10/31 09:40:55;;;;;;;4.17;0.30;;;;;;;;;;1736879;82;20897;-89
2022/10/31 09:43:53;;;;;;;0.65;0.30;;;;;;;;;;1731918;82;21047;-89
2022/10/31 09:46:39;;;;;;;1.35;0.28;;;;;;;;;;1730427;82;21004;-89
2022/10/31 09:49:14;;;;;;;0.40;0.20;;;;;;;;;;1734850;82;21036;-89
2022/10/31 09:51:46;;;;;;;3.75;0.50;;;;;;;;;;1734907;82;21001;-91
2022/10/31 09:54:17;;;;;;;1.07;0.30;;;;;;;;;;1737452;81;21111;-90
2022/10/31 09:56:44;;;;;;;1.47;0.30;;;;;;;;;;1732679;82;21083;-90
2022/10/31 09:59:30;;;;;;;0.78;0.40;;;;;;;;;;1737772;80;21079;-91
2022/10/31 10:02:11;;;;;;;1.10;0.33;;;;;;;;;;1623476;86;21104;-89
2022/10/31 10:04:49;;;;;;;1.70;0.50;;;;;;;;;;1604840;88;21145;-91
2022/10/31 10:07:28;;;;;;;0.40;0.28;;;;;;;;;;1645607;86;21096;-85
2022/10/31 10:09:54;;;;;;;4.80;0.70;;;;;;;;;;1619653;87;21116;-90
2022/10/31 10:12:26;;;;;;;3.60;0.20;;;;;;;;;;1651275;86;20918;-88
2022/10/31 10:15:17;;;;;;;2.77;0.40;;;;;;;;;;1643497;86;21569;-86
2022/10/31 10:18:00;;;;;;;3.33;0.40;;;;;;;;;;1645153;86;21612;-86
2022/10/31 10:20:44;;;;;;;1.75;0.40;;;;;;;;;;1641781;87;21079;-87
2022/10/31 10:23:16;;;;;;;3.67;0.40;;;;;;;;;;1645523;85;21161;-85
2022/10/31 10:25:43;;;;;;;2.80;0.35;;;;;;;;;;1642281;87;21513;-86
2022/10/31 10:28:20;;;;;;;0.93;0.50;;;;;;;;;;1645642;86;21557;-83
2022/10/31 10:30:55;;;;;;;1.60;0.50;;;;;;;;;;1645740;86;21037;-88
2022/10/31 10:33:41;;;;;;;19.50;0.78;;;;;;;;;;1646306;86;21108;-85
2022/10/31 10:36:11;;;;;;;2.65;0.40;;;;;;;;;;1646065;86;21139;-87
2022/10/31 10:38:51;;;;;;;1.75;0.45;;;;;;;;;;1562754;91;21090;-89
2022/10/31 10:41:19;;;;;;;1.72;0.40;;;;;;;;;;1575755;89;21637;-88
2022/10/31 10:50:06;;;;;;;4.33;0.47;;;;;;;;;;1449722;97;21105;-90
2022/10/31 10:52:38;;;;;;;7.25;1.05;;;;;;;;;;1409267;100;21716;-89
2022/10/31 10:55:13;;;;;;;2.58;0.70;;;;;;;;;;1402181;100;21638;-88
2022/10/31 10:57:49;;;;;;;1.77;0.40;;;;;;;;;;1410467;98;21168;-89
2022/10/31 11:00:24;;;;;;;2.98;0.55;;;;;;;;;;1478908;95;21642;-86
2022/10/31 11:02:50;;;;;;;1.47;0.60;;;;;;;;;;1479829;96;21142;-84
2022/10/31 11:05:32;;;;;;;2.02;0.50;;;;;;;;;;1460197;97;21796;-93
2022/10/31 11:07:57;;;;;;;2.08;0.40;;;;;;;;;;1479436;96;21211;-85
2022/10/31 11:10:23;;;;;;;4.75;0.40;;;;;;;;;;1508011;94;20932;-91
2022/10/31 11:13:15;;;;;;;2.33;0.70;;;;;;;;;;1518528;94;21140;-91
2022/10/31 11:15:56;;;;;;;1.55;0.42;;;;;;;;;;1519239;92;21276;-88
2022/10/31 11:18:26;;;;;;;1.00;0.40;;;;;;;;;;1521953;93;21140;-91
2022/10/31 11:20:57;;;;;;;0.50;0.23;;;;;;;;;;1500618;94;21129;-93
2022/10/31 11:23:24;;;;;;;0.98;0.37;;;;;;;;;;1500974;94;21639;-91
2022/10/31 11:25:57;;;;;;;3.92;0.33;;;;;;;;;;1548214;90;21107;-91
2022/10/31 11:28:22;;;;;;;1.67;0.47;;;;;;;;;;1581361;87;21168;-90
2022/10/31 11:30:52;;;;;;;4.25;0.62;;;;;;;;;;1622442;87;20919;-87
2022/10/31 11:33:24;;;;;;;3.33;0.40;;;;;;;;;;1622708;87;21057;-90
2022/10/31 11:35:53;;;;;;;4.83;0.33;;;;;;;;;;1590507;89;21485;-91
2022/10/31 11:38:21;;;;;;;4.87;0.33;;;;;;;;;;1636893;86;21021;-89
2022/10/31 11:41:16;;;;;;;1.82;0.40;;;;;;;;;;1616401;86;21133;-92
2022/10/31 11:43:51;;;;;;;1.30;0.47;;;;;;;;;;1639930;86;21089;-88
2022/10/31 11:46:26;;;;;;;1.05;0.30;;;;;;;;;;1615878;88;21059;-91
2022/10/31 11:48:54;;;;;;;2.50;0.37;;;;;;;;;;1564582;90;21052;-91
2022/10/31 11:51:22;;;;;;;2.58;0.30;;;;;;;;;;1603267;89;21761;-90
2022/10/31 11:53:53;;;;;;;3.50;0.45;;;;;;;;;;1505404;93;21221;-89
2022/10/31 11:56:19;;;;;;;0.65;0.40;;;;;;;;;;1459557;96;21248;-89
2022/10/31 11:58:48;;;;;;;1.42;0.47;;;;;;;;;;1460756;96;21089;-93
2022/10/31 12:01:28;;;;;;;1.00;0.40;;;;;;;;;;1433478;99;21099;-91
2022/10/31 12:04:00;;;;;;;1.90;0.35;;;;;;;;;;1435026;99;21097;-90
2022/10/31 12:06:35;;;;;;;3.90;0.60;;;;;;;;;;1415693;101;21234;-87
2022/10/31 12:09:00;;;;;;;3.05;0.80;;;;;;;;;;1417745;101;21177;-90
2022/10/31 12:11:41;;;;;;;1.77;0.45;;;;;;;;;;1417729;101;20976;-85
2022/10/31 12:14:44;;;;;;;1.27;0.60;;;;;;;;;;1392654;101;21151;-87
2022/10/31 12:17:38;;;;;;;4.53;0.70;;;;;;;;;;1388964;101;21212;-88
2022/10/31 12:20:25;;;;;;;7.67;0.53;;;;;;;;;;1419579;101;21996;-87
2022/10/31 12:23:03;;;;;;;1.67;0.40;;;;;;;;;;1441958;98;21849;-87
2022/10/31 12:25:35;;;;;;;1.47;0.47;;;;;;;;;;1442058;99;21136;-89
2022/10/31 12:28:21;;;;;;;4.10;0.50;;;;;;;;;;1465264;97;21097;-91
2022/10/31 12:31:07;;;;;;;2.58;0.50;;;;;;;;;;1465299;97;21601;-90
2022/10/31 12:33:49;;;;;;;2.08;0.60;;;;;;;;;;1465308;97;21289;-87
2022/10/31 12:36:26;;;;;;;2.45;0.45;;;;;;;;;;1462551;97;21181;-90
2022/10/31 12:39:11;;;;;;;0.88;0.30;;;;;;;;;;1489059;94;21551;-90
2022/10/31 12:41:40;;;;;;;4.25;0.40;;;;;;;;;;1507811;93;21067;-92
2022/10/31 12:44:12;;;;;;;2.27;0.60;;;;;;;;;;1529327;93;21171;-89
2022/10/31 12:47:00;;;;;;;2.72;0.65;;;;;;;;;;1529798;93;21115;-89
2022/10/31 12:49:35;;;;;;;4.67;0.47;;;;;;;;;;1533976;93;21111;-91
2022/10/31 12:52:10;;;;;;;2.20;0.57;;;;;;;;;;1571929;85;21536;-90
2022/10/31 12:54:48;;;;;;;1.95;0.50;;;;;;;;;;1643659;85;21153;-92
2022/10/31 12:57:41;;;;;;;2.33;0.65;;;;;;;;;;1648146;86;21203;-91
2022/10/31 13:00:15;;;;;;;1.50;0.65;;;;;;;;;;1650521;86;21188;-95
2022/10/31 13:03:03;;;;;;;2.12;1.02;;;;;;;;;;1650732;86;21117;-89
2022/10/31 13:05:40;;;;;;;4.03;0.60;;;;;;;;;;1646689;86;21065;-90
2022/10/31 13:08:12;;;;;;;2.77;0.40;;;;;;;;;;1650754;86;21145;-92
2022/10/31 13:10:43;;;;;;;0.70;0.40;;;;;;;;;;1647946;85;21030;-91
2022/10/31 13:13:18;;;;;;;3.58;0.70;;;;;;;;;;1650758;86;21960;-93
2022/10/31 13:15:53;;;;;;;1.50;0.50;;;;;;;;;;1647623;86;21078;-90
2022/10/31 13:18:33;;;;;;;2.27;0.60;;;;;;;;;;1655815;86;21054;-89
2022/10/31 13:21:02;;;;;;;8.18;0.98;;;;;;;;;;1590762;90;21108;-90
2022/10/31 13:23:30;;;;;;;5.10;0.65;;;;;;;;;;1591089;89;21585;-90
2022/10/31 13:25:58;;;;;;;1.10;0.60;;;;;;;;;;1584705;89;21860;-93
2022/10/31 13:28:43;;;;;;;3.77;0.72;;;;;;;;;;1576413;91;21136;-91
2022/10/31 13:31:09;;;;;;;2.55;0.80;;;;;;;;;;1527590;93;21048;-90
2022/10/31 13:33:40;;;;;;;2.27;0.70;;;;;;;;;;1518889;92;21147;-91
2022/10/31 13:36:18;;;;;;;2.30;0.60;;;;;;;;;;1522288;93;21167;-90
2022/10/31 13:38:54;;;;;;;9.45;0.90;;;;;;;;;;1521166;93;21383;-87
2022/10/31 13:41:48;;;;;;;3.12;0.50;;;;;;;;;;1533466;92;21694;-92
2022/10/31 13:44:25;;;;;;;4.15;0.75;;;;;;;;;;1578600;90;21054;-95
2022/10/31 13:46:54;;;;;;;3.83;0.53;;;;;;;;;;1539105;93;21119;-90
2022/10/31 13:49:32;;;;;;;4.05;0.82;;;;;;;;;;1507016;94;21139;-89
2022/10/31 13:52:12;;;;;;;4.08;0.60;;;;;;;;;;1563002;90;22524;-90
2022/10/31 13:54:47;;;;;;;5.25;0.50;;;;;;;;;;1567204;90;21442;-91
2022/10/31 13:57:35;;;;;;;4.22;0.75;;;;;;;;;;1456562;98;22372;-90
2022/10/31 14:00:07;;;;;;;5.87;0.90;;;;;;;;;;1460689;97;21106;-91
2022/10/31 14:02:35;;;;;;;9.25;1.00;;;;;;;;;;1457557;97;21771;-90
2022/10/31 14:05:06;;;;;;;1.82;0.70;;;;;;;;;;1462787;97;21855;-91
2022/10/31 14:07:32;;;;;;;2.58;0.75;;;;;;;;;;1464817;96;21122;-89
2022/10/31 14:10:18;;;;;;;4.35;0.50;;;;;;;;;;1477759;96;21414;-90
2022/10/31 14:12:45;;;;;;;2.37;0.75;;;;;;;;;;1451161;98;21791;-95
2022/10/31 14:15:20;;;;;;;6.47;0.70;;;;;;;;;;1448805;98;21712;-90
2022/10/31 14:17:54;;;;;;;3.72;0.80;;;;;;;;;;1519421;92;21555;-89
2022/10/31 14:20:24;;;;;;;3.90;0.85;;;;;;;;;;1554175;91;21133;-87
2022/10/31 14:22:50;;;;;;;5.60;0.80;;;;;;;;;;1498902;95;21103;-95
2022/10/31 14:25:36;;;;;;;3.00;0.82;;;;;;;;;;1489937;96;21734;-89
2022/10/31 14:28:05;;;;;;;3.02;0.53;;;;;;;;;;1492147;96;21779;-91
2022/10/31 14:30:30;;;;;;;1.45;0.60;;;;;;;;;;1536068;92;21135;-94
2022/10/31 14:33:02;;;;;;;1.65;0.65;;;;;;;;;;1483184;95;21046;-88
2022/10/31 14:35:31;;;;;;;2.02;0.60;;;;;;;;;;1503523;94;21116;-89
2022/10/31 14:38:10;;;;;;;2.62;0.90;;;;;;;;;;1504139;94;21100;-90
2022/10/31 14:40:57;;;;;;;4.10;0.65;;;;;;;;;;1504917;94;21682;-89
2022/10/31 14:43:46;;;;;;;4.45;0.80;;;;;;;;;;1496011;95;21215;-91
2022/10/31 14:46:19;;;;;;;3.52;0.60;;;;;;;;;;1541358;90;21641;-93
2022/10/31 14:49:09;;;;;;;3.10;0.57;;;;;;;;;;1597203;88;21665;-91
2022/10/31 14:51:40;;;;;;;4.22;0.68;;;;;;;;;;1595746;88;21218;-91
2022/10/31 14:54:07;;;;;;;1.65;0.68;;;;;;;;;;1583563;88;21131;-91
2022/10/31 14:56:35;;;;;;;2.00;0.55;;;;;;;;;;1604572;88;21139;-88
2022/10/31 14:59:04;;;;;;;5.95;1.10;;;;;;;;;;1608633;88;21647;-92
2022/10/31 15:01:36;;;;;;;2.65;1.02;;;;;;;;;;1609740;88;21069;-88
2022/10/31 15:04:17;;;;;;;3.50;1.30;;;;;;;;;;1602595;87;21658;-89
2022/10/31 15:06:46;;;;;;;6.08;1.35;;;;;;;;;;1625752;87;21122;-91
2022/10/31 15:09:26;;;;;;;5.47;1.20;;;;;;;;;;1604727;87;22128;-91